createdAt,value
2022-09-16T00:03:46.569Z,82.90
2022-09-16T00:11:54.532Z,83.30
2022-09-16T00:20:00.514Z,83.70
2022-09-16T00:28:08.816Z,84.10
2022-09-16T00:36:16.055Z,84.50
2022-09-16T00:44:58.189Z,85.70
2022-09-16T00:53:03.662Z,86.40
2022-09-16T01:01:11.823Z,86.30
2022-09-16T01:09:18.110Z,86.90
2022-09-16T01:17:36.733Z,87.50
2022-09-16T01:25:56.191Z,87.00
2022-09-16T01:34:13.875Z,87.00
2022-09-16T01:42:28.966Z,86.50
2022-09-16T01:50:44.286Z,85.50
2022-09-16T01:58:55.064Z,85.40
2022-09-16T02:07:05.721Z,85.20
2022-09-16T02:15:18.838Z,84.90
2022-09-16T02:23:33.444Z,84.60
2022-09-16T02:31:40.406Z,83.90
2022-09-16T02:39:52.061Z,83.40
2022-09-16T02:48:07.366Z,82.70
2022-09-16T02:56:21.368Z,82.20
2022-09-16T03:04:28.170Z,82.60
2022-09-16T03:13:04.981Z,82.70
2022-09-16T03:21:20.502Z,82.60
2022-09-16T03:29:35.450Z,82.60
2022-09-16T03:37:42.578Z,82.40
2022-09-16T03:45:50.503Z,82.20
2022-09-16T03:53:56.057Z,82.10
2022-09-16T04:02:05.011Z,82.10
2022-09-16T04:10:12.618Z,82.10
2022-09-16T04:18:20.746Z,82.10
2022-09-16T04:26:26.121Z,81.90
2022-09-16T04:34:34.182Z,82.00
2022-09-16T04:42:39.539Z,82.00
2022-09-16T04:50:47.503Z,82.20
2022-09-16T04:58:54.955Z,82.40
2022-09-16T05:07:03.212Z,82.20
2022-09-16T05:15:09.614Z,81.60
2022-09-16T05:23:17.515Z,80.80
2022-09-16T05:31:25.407Z,80.60
2022-09-16T05:39:33.515Z,80.70
2022-09-16T05:47:39.350Z,80.40
2022-09-16T05:55:56.694Z,79.80
2022-09-16T06:04:04.759Z,79.60
2022-09-16T06:12:13.602Z,82.50
2022-09-16T06:20:20.572Z,84.20
2022-09-16T06:28:28.654Z,85.00
2022-09-16T06:36:35.929Z,85.90
2022-09-16T06:44:44.227Z,86.30
2022-09-16T06:52:53.831Z,86.10
2022-09-16T07:01:01.959Z,83.40
2022-09-16T07:09:07.676Z,81.40
2022-09-16T07:17:15.578Z,77.50
2022-09-16T07:25:20.899Z,76.80
2022-09-16T07:33:29.142Z,77.40
2022-09-16T07:41:36.874Z,77.60
2022-09-16T07:49:44.819Z,76.00
2022-09-16T07:57:50.109Z,74.80
2022-09-16T08:06:03.874Z,75.50
2022-09-16T08:14:09.214Z,75.30
2022-09-16T08:22:17.147Z,75.00
2022-09-16T08:30:22.560Z,74.40
2022-09-16T08:38:31.211Z,72.30
2022-09-16T08:46:41.866Z,72.50
2022-09-16T08:54:53.548Z,69.80
2022-09-16T09:03:01.859Z,68.00
2022-09-16T09:11:17.807Z,66.90
2022-09-16T09:19:34.292Z,68.90
2022-09-16T09:27:51.528Z,69.50
2022-09-16T09:36:13.025Z,67.80
2022-09-16T09:44:48.571Z,67.30
2022-09-16T09:53:01.085Z,65.40
2022-09-16T10:01:09.759Z,65.00
2022-09-16T10:09:22.183Z,60.70
2022-09-16T10:17:33.278Z,56.10
2022-09-16T10:25:39.244Z,41.80
2022-09-16T10:33:48.341Z,34.80
2022-09-16T10:41:53.908Z,32.30
2022-09-16T10:50:05.707Z,35.20
2022-09-16T10:58:12.534Z,33.90
2022-09-16T11:06:44.648Z,36.70
2022-09-16T11:14:59.196Z,42.00
2022-09-16T11:23:14.840Z,47.20
2022-09-16T11:31:29.871Z,51.90
2022-09-16T11:39:49.924Z,53.70
2022-09-16T11:48:19.684Z,54.20
2022-09-16T11:56:38.153Z,53.70
2022-09-16T12:04:49.767Z,50.40
2022-09-16T12:12:58.617Z,52.60
2022-09-16T12:21:11.629Z,54.30
2022-09-16T12:29:24.431Z,55.70
2022-09-16T12:37:38.055Z,55.90
2022-09-16T12:46:07.290Z,56.00
2022-09-16T12:54:51.323Z,57.00
2022-09-16T13:03:10.491Z,58.90
2022-09-16T13:19:54.010Z,60.60
2022-09-16T13:28:02.352Z,62.10
2022-09-16T13:36:41.957Z,62.40
2022-09-16T13:44:47.270Z,61.50
2022-09-16T13:52:55.856Z,62.40
2022-09-16T14:01:08.601Z,63.20
2022-09-16T14:09:30.762Z,64.30
2022-09-16T14:17:42.093Z,64.40
2022-09-16T14:25:51.198Z,64.60
2022-09-16T14:34:02.201Z,64.60
2022-09-16T14:42:11.021Z,64.80
2022-09-16T14:50:22.670Z,66.10
2022-09-16T14:58:33.997Z,68.50
2022-09-16T15:06:45.738Z,76.60
2022-09-16T15:14:53.954Z,79.60
2022-09-16T15:22:59.709Z,79.60
2022-09-16T15:31:10.170Z,80.00
2022-09-16T15:39:28.420Z,80.90
2022-09-16T15:47:38.662Z,81.20
2022-09-16T15:55:47.009Z,82.40
2022-09-16T16:03:58.710Z,82.70
2022-09-16T16:12:05.880Z,83.70
2022-09-16T16:20:15.614Z,84.60
2022-09-16T16:28:20.943Z,84.70
2022-09-16T16:36:29.056Z,84.60
2022-09-16T16:44:35.135Z,84.60
2022-09-16T16:52:43.121Z,84.30
2022-09-16T17:00:48.627Z,84.50
2022-09-16T17:08:56.895Z,85.40
2022-09-16T17:17:02.960Z,85.30
2022-09-16T17:25:12.517Z,86.20
2022-09-16T17:33:17.802Z,88.10
2022-09-16T17:41:27.081Z,90.30
2022-09-16T17:49:32.930Z,91.00
2022-09-16T17:57:40.909Z,91.10
2022-09-16T18:05:47.178Z,91.20
2022-09-16T18:13:57.719Z,91.40
2022-09-16T18:22:03.899Z,91.50
2022-09-16T18:30:13.626Z,91.60
2022-09-16T18:38:22.100Z,91.90
2022-09-16T18:46:32.215Z,92.80
2022-09-16T18:54:37.851Z,92.20
2022-09-16T19:02:46.090Z,92.00
2022-09-16T19:10:51.878Z,91.80
2022-09-16T19:19:01.064Z,91.60
2022-09-16T19:27:06.577Z,91.60
2022-09-16T19:35:15.703Z,91.50
2022-09-16T19:43:21.663Z,91.20
2022-09-16T19:51:30.196Z,91.10
2022-09-16T19:59:36.046Z,91.00
2022-09-16T20:07:43.977Z,91.00
2022-09-16T20:15:50.144Z,91.10
2022-09-16T20:23:58.872Z,91.10
2022-09-16T20:32:04.508Z,91.30
2022-09-16T20:40:13.142Z,91.30
2022-09-16T20:48:18.688Z,91.20
2022-09-16T20:56:27.857Z,91.40
2022-09-16T21:04:35.778Z,91.50
2022-09-16T21:12:43.690Z,91.60
2022-09-16T21:20:48.953Z,92.00
2022-09-16T21:29:00.143Z,92.10
2022-09-16T21:37:05.767Z,92.10
2022-09-16T21:45:15.242Z,91.90
2022-09-16T21:53:21.157Z,91.80
2022-09-16T22:01:31.767Z,91.90
2022-09-16T22:09:37.357Z,91.90
2022-09-16T22:17:51.347Z,91.70
2022-09-16T22:25:57.474Z,91.80
2022-09-16T22:34:05.717Z,91.90
2022-09-16T22:42:11.317Z,92.00
2022-09-16T22:50:19.609Z,92.00
2022-09-16T22:58:25.546Z,92.90
2022-09-16T23:06:35.680Z,92.60
2022-09-16T23:14:42.235Z,92.40
2022-09-16T23:22:50.121Z,92.50
2022-09-16T23:30:55.415Z,92.80
2022-09-16T23:39:03.622Z,92.70
2022-09-16T23:47:09.138Z,92.80
2022-09-16T23:55:17.029Z,92.90
